Darstellungsparameter: Aktuell verwendete Einstellungen:
Skalierung der Graphiken ... ?
xyx+y,   Skalierungsfaktor:      Skalierung: Modus: x, Faktor: 1
Darstellungszeitraum ... ?
Vom - - bis: - -   Zeitraum: 14.03.2021 - 14.03.2021
Min/Max/Avg-Anzeige ... ?
Zeige MMA aktuell
Zeige MMA Monat
Zeige MMA alles
Zeige --A aktuell
Zeige --A Monat
Zeige --A alles
Keine MMA-Anzeige
MMA:
Average (ber die Originaldaten)
MMA-Basis: 14.03.2021 - 14.03.2021
Quicknavigation für Darstellung... ?
Tage:      1T, 2T, 3T, 5T -1T -2T -3T -5T +1T +2T +3T +5T
Wochen: 1W, 2W, 3W -1W -2W -3W +1W +2W +3W
Monate: 1M, 3M, 6M -1M -3M -6M +1M +3M +6M
Jahre:    1J, 3J, 5J, 10J -1J -3J -5J -10J +1J +3J +5J +10J
Nutze für die Darstellung ... ?
Originaldaten oder Mittelwerte auf ...
Stundenbasis Tagesbasis Wochenbasis
Monatsbasis Jahresbasis      Datenbasis: Original-Daten
Darstellen als:
Statistik (Auto) Statistik J:M      Darstellung:
Zur Graphik,    zurück zur Übersicht aller Sensoren.
 
Tabellarische Datenbersicht: ?
 
Sensor: Nr:Datum:Temp:Abs-Feuchte:Windchill:Wind:
Aussen-T/F 1 14-03-2021 00:00:00 5 C 5.71 g/m*3 5 C 3.2 km/h
2 14-03-2021 00:05:00 4.9 C 5.74 g/m*3 4.9 C 4.8 km/h
3 14-03-2021 00:10:00 4.8 C 5.7 g/m*3 3.36 C 6.4 km/h
4 14-03-2021 00:15:00 4.7 C 5.66 g/m*3 2.37 C 9.7 km/h
5 14-03-2021 00:20:00 4.7 C 5.66 g/m*3 4.7 C 3.2 km/h
6 14-03-2021 00:25:00 4.6 C 5.62 g/m*3 3.13 C 6.4 km/h
7 14-03-2021 00:30:00 4.6 C 5.62 g/m*3 3.13 C 6.4 km/h
8 14-03-2021 00:35:00 4.6 C 5.69 g/m*3 1.34 C 14.5 km/h
9 14-03-2021 00:40:00 4.8 C 5.7 g/m*3 1.85 C 12.9 km/h
10 14-03-2021 00:45:00 4.9 C 5.74 g/m*3 1.97 C 12.9 km/h
11 14-03-2021 00:50:00 5.1 C 5.75 g/m*3 2.22 C 12.9 km/h
12 14-03-2021 00:55:00 5.1 C 5.75 g/m*3 2.51 C 11.3 km/h
13 14-03-2021 01:00:00 5.1 C 5.75 g/m*3 5.1 C 3.2 km/h
14 14-03-2021 01:05:00 5 C 5.71 g/m*3 3.11 C 8.1 km/h
15 14-03-2021 01:10:00 4.9 C 5.74 g/m*3 3.48 C 6.4 km/h
16 14-03-2021 01:15:00 4.8 C 5.77 g/m*3 4.8 C 3.2 km/h
17 14-03-2021 01:20:00 4.6 C 5.69 g/m*3 4.6 C 4.8 km/h
18 14-03-2021 01:25:00 4.3 C 5.64 g/m*3 4.3 C 4.8 km/h
19 14-03-2021 01:30:00 4.2 C 5.67 g/m*3 4.2 C 4.8 km/h
20 14-03-2021 01:35:00 4.1 C 5.63 g/m*3 4.1 C 0 km/h
21 14-03-2021 01:40:00 4 C 5.66 g/m*3 4 C 0 km/h
22 14-03-2021 01:45:00 3.9 C 5.62 g/m*3 3.9 C 3.2 km/h
23 14-03-2021 01:50:00 4 C 5.79 g/m*3 0.6 C 14.5 km/h
24 14-03-2021 01:55:00 4 C 5.79 g/m*3 1.53 C 9.7 km/h
25 14-03-2021 02:00:00 4 C 5.85 g/m*3 1.53 C 9.7 km/h
Sensor: Nr:Datum:Temp:Abs-Feuchte:Windchill:Wind:
Aussen-T/F 26 14-03-2021 02:05:00 4.1 C 5.89 g/m*3 1.65 C 9.7 km/h
27 14-03-2021 02:10:00 4.1 C 5.89 g/m*3 2.05 C 8.1 km/h
28 14-03-2021 02:15:00 4 C 5.85 g/m*3 1.18 C 11.3 km/h
29 14-03-2021 02:20:00 4 C 5.85 g/m*3 1.53 C 9.7 km/h
30 14-03-2021 02:25:00 3.9 C 5.81 g/m*3 0.47 C 14.5 km/h
31 14-03-2021 02:30:00 3.9 C 5.81 g/m*3 0.75 C 12.9 km/h
32 14-03-2021 02:35:00 3.8 C 5.77 g/m*3 0.63 C 12.9 km/h
33 14-03-2021 02:40:00 3.8 C 5.77 g/m*3 1.7 C 8.1 km/h
34 14-03-2021 02:45:00 3.8 C 5.77 g/m*3 2.21 C 6.4 km/h
35 14-03-2021 02:50:00 3.8 C 5.77 g/m*3 1.7 C 8.1 km/h
36 14-03-2021 02:55:00 3.8 C 5.77 g/m*3 0.94 C 11.3 km/h
37 14-03-2021 03:00:00 3.8 C 5.77 g/m*3 2.21 C 6.4 km/h
38 14-03-2021 03:05:00 3.8 C 5.83 g/m*3 2.21 C 6.4 km/h
39 14-03-2021 03:10:00 3.8 C 5.83 g/m*3 2.21 C 6.4 km/h
40 14-03-2021 03:15:00 3.8 C 5.83 g/m*3 3.8 C 4.8 km/h
41 14-03-2021 03:20:00 3.8 C 5.83 g/m*3 1.29 C 9.7 km/h
42 14-03-2021 03:25:00 3.8 C 5.83 g/m*3 1.7 C 8.1 km/h
43 14-03-2021 03:30:00 3.8 C 5.83 g/m*3 1.29 C 9.7 km/h
44 14-03-2021 03:35:00 3.8 C 5.83 g/m*3 0.35 C 14.5 km/h
45 14-03-2021 03:40:00 3.8 C 5.83 g/m*3 0.94 C 11.3 km/h
46 14-03-2021 03:45:00 3.9 C 5.87 g/m*3 1.41 C 9.7 km/h
47 14-03-2021 03:50:00 3.8 C 5.77 g/m*3 0.94 C 11.3 km/h
48 14-03-2021 03:55:00 3.8 C 5.77 g/m*3 1.7 C 8.1 km/h
49 14-03-2021 04:00:00 3.8 C 5.77 g/m*3 1.29 C 9.7 km/h
50 14-03-2021 04:05:00 3.8 C 5.77 g/m*3 1.29 C 9.7 km/h
Sensor: Nr:Datum:Temp:Abs-Feuchte:Windchill:Wind:
Aussen-T/F 51 14-03-2021 04:10:00 3.7 C 5.73 g/m*3 0.82 C 11.3 km/h
52 14-03-2021 04:15:00 3.7 C 5.73 g/m*3 0.51 C 12.9 km/h
53 14-03-2021 04:20:00 3.7 C 5.73 g/m*3 0.82 C 11.3 km/h
54 14-03-2021 04:25:00 3.8 C 5.77 g/m*3 0.63 C 12.9 km/h
55 14-03-2021 04:30:00 3.8 C 5.71 g/m*3 0.94 C 11.3 km/h
56 14-03-2021 04:35:00 3.8 C 5.71 g/m*3 0.63 C 12.9 km/h
57 14-03-2021 04:40:00 3.7 C 5.67 g/m*3 1.18 C 9.7 km/h
58 14-03-2021 04:45:00 3.7 C 5.67 g/m*3 0.82 C 11.3 km/h
59 14-03-2021 04:50:00 3.7 C 5.67 g/m*3 -0.26 C 17.7 km/h
60 14-03-2021 04:55:00 3.7 C 5.61 g/m*3 -0.26 C 17.7 km/h
61 14-03-2021 05:00:00 3.7 C 5.67 g/m*3 0.82 C 11.3 km/h
62 14-03-2021 05:05:00 3.7 C 5.67 g/m*3 1.58 C 8.1 km/h
63 14-03-2021 05:10:00 3.7 C 5.67 g/m*3 1.18 C 9.7 km/h
64 14-03-2021 05:15:00 3.7 C 5.61 g/m*3 0.82 C 11.3 km/h
65 14-03-2021 05:20:00 3.6 C 5.57 g/m*3 1.46 C 8.1 km/h
66 14-03-2021 05:25:00 3.6 C 5.57 g/m*3 0.39 C 12.9 km/h
67 14-03-2021 05:30:00 3.5 C 5.53 g/m*3 -0.02 C 14.5 km/h
68 14-03-2021 05:35:00 3.6 C 5.57 g/m*3 -0.15 C 16.1 km/h
69 14-03-2021 05:40:00 3.6 C 5.57 g/m*3 0.11 C 14.5 km/h
70 14-03-2021 05:45:00 3.6 C 5.51 g/m*3 -0.61 C 19.3 km/h
71 14-03-2021 05:50:00 3.6 C 5.51 g/m*3 0.11 C 14.5 km/h
72 14-03-2021 05:55:00 3.7 C 5.48 g/m*3 -0.03 C 16.1 km/h
73 14-03-2021 06:00:00 3.7 C 5.48 g/m*3 0.51 C 12.9 km/h
74 14-03-2021 06:05:00 3.7 C 5.48 g/m*3 0.23 C 14.5 km/h
75 14-03-2021 06:10:00 3.7 C 5.48 g/m*3 -0.03 C 16.1 km/h
Sensor: Nr:Datum:Temp:Abs-Feuchte:Windchill:Wind:
Aussen-T/F 76 14-03-2021 06:15:00 3.7 C 5.42 g/m*3 -0.69 C 20.9 km/h
77 14-03-2021 06:20:00 3.7 C 5.42 g/m*3 0.51 C 12.9 km/h
78 14-03-2021 06:25:00 3.7 C 5.42 g/m*3 -0.03 C 16.1 km/h
79 14-03-2021 06:30:00 3.6 C 5.45 g/m*3 0.39 C 12.9 km/h
80 14-03-2021 06:35:00 3.6 C 5.45 g/m*3 0.39 C 12.9 km/h
81 14-03-2021 06:40:00 3.6 C 5.39 g/m*3 0.39 C 12.9 km/h
82 14-03-2021 06:45:00 3.6 C 5.39 g/m*3 0.11 C 14.5 km/h
83 14-03-2021 06:50:00 3.7 C 5.36 g/m*3 -0.26 C 17.7 km/h
84 14-03-2021 06:55:00 3.7 C 5.36 g/m*3 -0.26 C 17.7 km/h
85 14-03-2021 07:00:00 3.8 C 5.4 g/m*3 0.1 C 16.1 km/h
86 14-03-2021 07:05:00 3.9 C 5.37 g/m*3 0.75 C 12.9 km/h
87 14-03-2021 07:10:00 3.9 C 5.37 g/m*3 -0.01 C 17.7 km/h
88 14-03-2021 07:15:00 3.9 C 5.37 g/m*3 1.06 C 11.3 km/h
89 14-03-2021 07:20:00 3.9 C 5.43 g/m*3 -0.01 C 17.7 km/h
90 14-03-2021 07:25:00 4 C 5.4 g/m*3 0.34 C 16.1 km/h
91 14-03-2021 07:30:00 4.1 C 5.44 g/m*3 1.65 C 9.7 km/h
92 14-03-2021 07:35:00 4.2 C 5.54 g/m*3 0.84 C 14.5 km/h
93 14-03-2021 07:40:00 4.2 C 5.54 g/m*3 2.17 C 8.1 km/h
94 14-03-2021 07:45:00 4.3 C 5.58 g/m*3 1.89 C 9.7 km/h
95 14-03-2021 07:50:00 4.4 C 5.62 g/m*3 1.67 C 11.3 km/h
96 14-03-2021 07:55:00 4.6 C 5.69 g/m*3 1.09 C 16.1 km/h
97 14-03-2021 08:00:00 4.7 C 5.66 g/m*3 1.73 C 12.9 km/h
98 14-03-2021 08:05:00 4.7 C 5.66 g/m*3 2.03 C 11.3 km/h
99 14-03-2021 08:10:00 4.8 C 5.7 g/m*3 2.49 C 9.7 km/h
100 14-03-2021 08:15:00 4.8 C 5.7 g/m*3 2.15 C 11.3 km/h
Sensor: Nr:Datum:Temp:Abs-Feuchte:Windchill:Wind:
Aussen-T/F 101 14-03-2021 08:20:00 4.8 C 5.7 g/m*3 1.85 C 12.9 km/h
102 14-03-2021 08:25:00 4.9 C 5.67 g/m*3 1.46 C 16.1 km/h
103 14-03-2021 08:30:00 4.9 C 5.67 g/m*3 1.24 C 17.7 km/h
104 14-03-2021 08:35:00 5 C 5.64 g/m*3 1.83 C 14.5 km/h
105 14-03-2021 08:40:00 5 C 5.64 g/m*3 1.83 C 14.5 km/h
106 14-03-2021 08:45:00 5.1 C 5.68 g/m*3 1.71 C 16.1 km/h
107 14-03-2021 08:50:00 5.1 C 5.61 g/m*3 2.84 C 9.7 km/h
108 14-03-2021 08:55:00 5.1 C 5.68 g/m*3 2.51 C 11.3 km/h
109 14-03-2021 09:00:00 5.1 C 5.61 g/m*3 2.22 C 12.9 km/h
110 14-03-2021 09:05:00 5.2 C 5.71 g/m*3 2.34 C 12.9 km/h
111 14-03-2021 09:10:00 5.2 C 5.71 g/m*3 1.83 C 16.1 km/h
112 14-03-2021 09:15:00 5.4 C 5.79 g/m*3 2.58 C 12.9 km/h
113 14-03-2021 09:20:00 5.6 C 5.87 g/m*3 2.83 C 12.9 km/h
114 14-03-2021 09:25:00 5.8 C 5.95 g/m*3 3.07 C 12.9 km/h
115 14-03-2021 09:30:00 5.9 C 5.91 g/m*3 3.19 C 12.9 km/h
116 14-03-2021 09:35:00 6.1 C 5.99 g/m*3 4.04 C 9.7 km/h
117 14-03-2021 09:40:00 6.2 C 6.03 g/m*3 3.56 C 12.9 km/h
118 14-03-2021 09:45:00 6.2 C 5.96 g/m*3 2.86 C 17.7 km/h
119 14-03-2021 09:50:00 6.1 C 5.92 g/m*3 3.43 C 12.9 km/h
120 14-03-2021 09:55:00 6.1 C 5.92 g/m*3 2.73 C 17.7 km/h
121 14-03-2021 10:00:00 6.1 C 5.92 g/m*3 2.95 C 16.1 km/h
122 14-03-2021 10:05:00 6.2 C 5.96 g/m*3 2.66 C 19.3 km/h
123 14-03-2021 10:10:00 6.2 C 5.96 g/m*3 3.3 C 14.5 km/h
124 14-03-2021 10:15:00 6.3 C 6 g/m*3 2.79 C 19.3 km/h
125 14-03-2021 10:20:00 6.3 C 6 g/m*3 4.27 C 9.7 km/h
Sensor: Nr:Datum:Temp:Abs-Feuchte:Windchill:Wind:
Aussen-T/F 126 14-03-2021 10:25:00 6.4 C 6.04 g/m*3 3.8 C 12.9 km/h
127 14-03-2021 10:30:00 6.4 C 6.04 g/m*3 4.39 C 9.7 km/h
128 14-03-2021 10:35:00 6.3 C 6 g/m*3 3.96 C 11.3 km/h
129 14-03-2021 10:40:00 6.3 C 6 g/m*3 3.43 C 14.5 km/h
130 14-03-2021 10:45:00 6.2 C 5.96 g/m*3 4.52 C 8.1 km/h
131 14-03-2021 10:50:00 6.2 C 6.03 g/m*3 4.98 C 6.4 km/h
132 14-03-2021 10:55:00 6.1 C 5.99 g/m*3 3.72 C 11.3 km/h
133 14-03-2021 11:00:00 6.2 C 6.03 g/m*3 3.07 C 16.1 km/h
134 14-03-2021 11:05:00 6.2 C 6.03 g/m*3 3.07 C 16.1 km/h
135 14-03-2021 11:10:00 6.1 C 5.99 g/m*3 2.73 C 17.7 km/h
136 14-03-2021 11:15:00 6.2 C 6.03 g/m*3 4.52 C 8.1 km/h
137 14-03-2021 11:20:00 6.2 C 6.03 g/m*3 4.15 C 9.7 km/h
138 14-03-2021 11:25:00 6.2 C 6.03 g/m*3 4.15 C 9.7 km/h
139 14-03-2021 11:30:00 6.3 C 6.14 g/m*3 5.1 C 6.4 km/h
140 14-03-2021 11:35:00 6.3 C 6.07 g/m*3 2.61 C 20.9 km/h
141 14-03-2021 11:40:00 6.4 C 6.11 g/m*3 4.39 C 9.7 km/h
142 14-03-2021 11:45:00 6.6 C 6.19 g/m*3 3.36 C 17.7 km/h
143 14-03-2021 11:50:00 6.8 C 6.19 g/m*3 4.29 C 12.9 km/h
144 14-03-2021 11:55:00 7.1 C 6.24 g/m*3 4.41 C 14.5 km/h
145 14-03-2021 12:00:00 7.2 C 6.28 g/m*3 4.77 C 12.9 km/h
146 14-03-2021 12:05:00 7.1 C 6.24 g/m*3 4.19 C 16.1 km/h
147 14-03-2021 12:10:00 7 C 6.2 g/m*3 3.49 C 20.9 km/h
148 14-03-2021 12:15:00 7 C 6.2 g/m*3 3.33 C 22.5 km/h
149 14-03-2021 12:20:00 7.1 C 6.24 g/m*3 4.41 C 14.5 km/h
150 14-03-2021 12:25:00 7.2 C 6.28 g/m*3 5.04 C 11.3 km/h
Sensor: Nr:Datum:Temp:Abs-Feuchte:Windchill:Wind:
Aussen-T/F 151 14-03-2021 12:30:00 7.1 C 6.24 g/m*3 4.19 C 16.1 km/h
152 14-03-2021 12:35:00 7.1 C 6.24 g/m*3 3.98 C 17.7 km/h
153 14-03-2021 12:40:00 7.1 C 6.24 g/m*3 4.65 C 12.9 km/h
154 14-03-2021 12:45:00 7.2 C 6.28 g/m*3 5.04 C 11.3 km/h
155 14-03-2021 12:50:00 7.2 C 6.2 g/m*3 4.31 C 16.1 km/h
156 14-03-2021 12:55:00 7.2 C 6.28 g/m*3 3.92 C 19.3 km/h
157 14-03-2021 13:00:00 7.2 C 6.28 g/m*3 4.31 C 16.1 km/h
158 14-03-2021 13:05:00 7.2 C 6.28 g/m*3 3.75 C 20.9 km/h
159 14-03-2021 13:10:00 7.2 C 6.28 g/m*3 4.77 C 12.9 km/h
160 14-03-2021 13:15:00 7.2 C 6.44 g/m*3 5.04 C 11.3 km/h
161 14-03-2021 13:20:00 7.2 C 6.44 g/m*3 4.77 C 12.9 km/h
162 14-03-2021 13:25:00 7.2 C 6.36 g/m*3 4.31 C 16.1 km/h
163 14-03-2021 13:30:00 7.3 C 6.4 g/m*3 4.9 C 12.9 km/h
164 14-03-2021 13:35:00 7.4 C 6.36 g/m*3 4.78 C 14.5 km/h
165 14-03-2021 13:40:00 7.5 C 6.48 g/m*3 5.41 C 11.3 km/h
166 14-03-2021 13:45:00 7.4 C 6.44 g/m*3 5.28 C 11.3 km/h
167 14-03-2021 13:50:00 7.4 C 6.44 g/m*3 5.28 C 11.3 km/h
168 14-03-2021 13:55:00 7.5 C 6.48 g/m*3 5.14 C 12.9 km/h
169 14-03-2021 14:00:00 7.6 C 6.53 g/m*3 7.6 C 4.8 km/h
170 14-03-2021 14:05:00 7.6 C 6.36 g/m*3 5.82 C 9.7 km/h
171 14-03-2021 14:10:00 7.6 C 6.36 g/m*3 4.42 C 19.3 km/h
172 14-03-2021 14:15:00 6.9 C 6.24 g/m*3 3.94 C 16.1 km/h
173 14-03-2021 14:20:00 6.4 C 6.26 g/m*3 4.39 C 9.7 km/h
174 14-03-2021 14:25:00 6.1 C 6.28 g/m*3 6.1 C 1.6 km/h
175 14-03-2021 14:30:00 6.1 C 6.36 g/m*3 4.86 C 6.4 km/h
Sensor: Nr:Datum:Temp:Abs-Feuchte:Windchill:Wind:
Aussen-T/F 176 14-03-2021 14:35:00 6.1 C 6.43 g/m*3 6.1 C 4.8 km/h
177 14-03-2021 14:40:00 6.2 C 6.55 g/m*3 6.2 C 3.2 km/h
178 14-03-2021 14:45:00 6.3 C 6.66 g/m*3 6.3 C 3.2 km/h
179 14-03-2021 14:50:00 6.5 C 6.82 g/m*3 6.5 C 0 km/h
180 14-03-2021 14:55:00 6.6 C 6.87 g/m*3 6.6 C 0 km/h
181 14-03-2021 15:00:00 6.7 C 6.91 g/m*3 6.7 C 0 km/h
182 14-03-2021 15:05:00 6.8 C 6.96 g/m*3 6.8 C 0 km/h
183 14-03-2021 15:10:00 6.9 C 7.08 g/m*3 6.9 C 1.6 km/h
184 14-03-2021 15:15:00 7.2 C 7.22 g/m*3 7.2 C 3.2 km/h
185 14-03-2021 15:20:00 7.3 C 7.27 g/m*3 7.3 C 3.2 km/h
186 14-03-2021 15:25:00 7.4 C 7.24 g/m*3 7.4 C 3.2 km/h
187 14-03-2021 15:30:00 7.5 C 7.2 g/m*3 7.5 C 1.6 km/h
188 14-03-2021 15:35:00 7.6 C 7.09 g/m*3 6.16 C 8.1 km/h
189 14-03-2021 15:40:00 7.6 C 7.09 g/m*3 7.6 C 3.2 km/h
190 14-03-2021 15:45:00 7.6 C 6.93 g/m*3 6.6 C 6.4 km/h
191 14-03-2021 15:50:00 7.6 C 6.77 g/m*3 6.6 C 6.4 km/h
192 14-03-2021 15:55:00 7.5 C 6.56 g/m*3 6.05 C 8.1 km/h
193 14-03-2021 16:00:00 7.6 C 6.53 g/m*3 5.82 C 9.7 km/h
194 14-03-2021 16:05:00 7.6 C 6.53 g/m*3 5.53 C 11.3 km/h
195 14-03-2021 16:10:00 7.6 C 6.44 g/m*3 5.82 C 9.7 km/h
196 14-03-2021 16:15:00 7.6 C 6.36 g/m*3 4.81 C 16.1 km/h
197 14-03-2021 16:20:00 7.1 C 6.32 g/m*3 3.62 C 20.9 km/h
198 14-03-2021 16:25:00 6.7 C 6.31 g/m*3 6.7 C 4.8 km/h
199 14-03-2021 16:30:00 6.4 C 6.33 g/m*3 4.39 C 9.7 km/h
200 14-03-2021 16:35:00 6.3 C 6.44 g/m*3 6.3 C 3.2 km/h
Sensor: Nr:Datum:Temp:Abs-Feuchte:Windchill:Wind:
Aussen-T/F 201 14-03-2021 16:40:00 6.6 C 6.72 g/m*3 6.6 C 4.8 km/h
202 14-03-2021 16:45:00 7.1 C 7.02 g/m*3 7.1 C 4.8 km/h
203 14-03-2021 16:50:00 7.6 C 7.25 g/m*3 7.6 C 3.2 km/h
204 14-03-2021 16:55:00 8.1 C 7.41 g/m*3 8.1 C 4.8 km/h
205 14-03-2021 17:00:00 8.3 C 7.33 g/m*3 8.3 C 3.2 km/h
206 14-03-2021 17:05:00 8.2 C 7.2 g/m*3 8.2 C 4.8 km/h
207 14-03-2021 17:10:00 8.3 C 7.33 g/m*3 8.3 C 3.2 km/h
208 14-03-2021 17:15:00 8.3 C 7.16 g/m*3 8.3 C 3.2 km/h
209 14-03-2021 17:20:00 8.3 C 7.16 g/m*3 8.3 C 0 km/h
210 14-03-2021 17:25:00 8.2 C 7.12 g/m*3 8.2 C 3.2 km/h
211 14-03-2021 17:30:00 7.8 C 6.94 g/m*3 7.8 C 4.8 km/h
212 14-03-2021 17:35:00 7.3 C 6.79 g/m*3 6.25 C 6.4 km/h
213 14-03-2021 17:40:00 6.9 C 6.7 g/m*3 6.9 C 4.8 km/h
214 14-03-2021 17:45:00 6.7 C 6.69 g/m*3 5.56 C 6.4 km/h
215 14-03-2021 17:50:00 6.7 C 6.76 g/m*3 4.75 C 9.7 km/h
216 14-03-2021 17:55:00 6.8 C 6.81 g/m*3 4.56 C 11.3 km/h
217 14-03-2021 18:00:00 6.7 C 6.84 g/m*3 6.7 C 3.2 km/h
218 14-03-2021 18:05:00 6.6 C 6.72 g/m*3 6.6 C 4.8 km/h
219 14-03-2021 18:10:00 6.4 C 6.63 g/m*3 6.4 C 3.2 km/h
220 14-03-2021 18:15:00 6.3 C 6.59 g/m*3 5.1 C 6.4 km/h
221 14-03-2021 18:20:00 6 C 6.46 g/m*3 4.75 C 6.4 km/h
222 14-03-2021 18:25:00 5.8 C 6.38 g/m*3 4.52 C 6.4 km/h
223 14-03-2021 18:30:00 5.6 C 6.36 g/m*3 4.29 C 6.4 km/h
224 14-03-2021 18:35:00 5.4 C 6.28 g/m*3 4.06 C 6.4 km/h
225 14-03-2021 18:40:00 5.3 C 6.24 g/m*3 3.94 C 6.4 km/h
Sensor: Nr:Datum:Temp:Abs-Feuchte:Windchill:Wind:
Aussen-T/F 226 14-03-2021 18:45:00 5.3 C 6.31 g/m*3 5.3 C 4.8 km/h
227 14-03-2021 18:50:00 5.2 C 6.27 g/m*3 5.2 C 4.8 km/h
228 14-03-2021 18:55:00 5.2 C 6.27 g/m*3 3.82 C 6.4 km/h
229 14-03-2021 19:00:00 5.1 C 6.22 g/m*3 3.71 C 6.4 km/h
230 14-03-2021 19:05:00 5 C 6.12 g/m*3 5 C 4.8 km/h
231 14-03-2021 19:10:00 4.9 C 6.08 g/m*3 3.48 C 6.4 km/h
232 14-03-2021 19:15:00 4.8 C 6.1 g/m*3 2.87 C 8.1 km/h
233 14-03-2021 19:20:00 4.7 C 6 g/m*3 4.7 C 4.8 km/h
234 14-03-2021 19:25:00 4.6 C 6.02 g/m*3 3.13 C 6.4 km/h
235 14-03-2021 19:30:00 4.4 C 5.94 g/m*3 4.4 C 4.8 km/h
236 14-03-2021 19:35:00 4.3 C 5.9 g/m*3 4.3 C 3.2 km/h
237 14-03-2021 19:40:00 4.3 C 5.9 g/m*3 2.78 C 6.4 km/h
238 14-03-2021 19:45:00 4.3 C 5.9 g/m*3 2.29 C 8.1 km/h
239 14-03-2021 19:50:00 4.2 C 5.93 g/m*3 2.67 C 6.4 km/h
240 14-03-2021 19:55:00 4.3 C 5.97 g/m*3 4.3 C 3.2 km/h
241 14-03-2021 20:00:00 4.2 C 5.93 g/m*3 4.2 C 1.6 km/h
242 14-03-2021 20:05:00 4.2 C 5.93 g/m*3 2.67 C 6.4 km/h
243 14-03-2021 20:10:00 4.2 C 5.93 g/m*3 4.2 C 3.2 km/h
244 14-03-2021 20:15:00 4.2 C 5.93 g/m*3 4.2 C 1.6 km/h
245 14-03-2021 20:20:00 4.1 C 5.89 g/m*3 2.05 C 8.1 km/h
246 14-03-2021 20:25:00 4.1 C 5.89 g/m*3 4.1 C 3.2 km/h
247 14-03-2021 20:30:00 4.1 C 5.89 g/m*3 4.1 C 3.2 km/h
248 14-03-2021 20:35:00 4.1 C 5.89 g/m*3 4.1 C 1.6 km/h
249 14-03-2021 20:40:00 4.2 C 5.99 g/m*3 4.2 C 4.8 km/h
250 14-03-2021 20:45:00 4.3 C 6.03 g/m*3 2.78 C 6.4 km/h
Sensor: Nr:Datum:Temp:Abs-Feuchte:Windchill:Wind:
Aussen-T/F 251 14-03-2021 20:50:00 4.3 C 6.03 g/m*3 4.3 C 4.8 km/h
252 14-03-2021 20:55:00 4.3 C 6.03 g/m*3 2.78 C 6.4 km/h
253 14-03-2021 21:00:00 4.3 C 6.03 g/m*3 4.3 C 1.6 km/h
254 14-03-2021 21:05:00 4.3 C 6.03 g/m*3 4.3 C 3.2 km/h
255 14-03-2021 21:10:00 4.3 C 6.03 g/m*3 4.3 C 4.8 km/h
256 14-03-2021 21:15:00 4.3 C 6.03 g/m*3 4.3 C 1.6 km/h
257 14-03-2021 21:20:00 4.3 C 6.03 g/m*3 2.78 C 6.4 km/h
258 14-03-2021 21:25:00 4.3 C 6.03 g/m*3 4.3 C 4.8 km/h
259 14-03-2021 21:30:00 4.2 C 5.99 g/m*3 2.67 C 6.4 km/h
260 14-03-2021 21:35:00 4.2 C 5.99 g/m*3 4.2 C 4.8 km/h
261 14-03-2021 21:40:00 4.3 C 6.03 g/m*3 1.55 C 11.3 km/h
262 14-03-2021 21:45:00 4.3 C 5.97 g/m*3 1.89 C 9.7 km/h
263 14-03-2021 21:50:00 4.4 C 6.01 g/m*3 4.4 C 4.8 km/h
264 14-03-2021 21:55:00 4.5 C 6.05 g/m*3 3.02 C 6.4 km/h
265 14-03-2021 22:00:00 4.5 C 6.05 g/m*3 1.79 C 11.3 km/h
266 14-03-2021 22:05:00 4.6 C 6.02 g/m*3 2.25 C 9.7 km/h
267 14-03-2021 22:10:00 4.6 C 6.02 g/m*3 2.64 C 8.1 km/h
268 14-03-2021 22:15:00 4.6 C 6.02 g/m*3 4.6 C 4.8 km/h
269 14-03-2021 22:20:00 4.7 C 6.06 g/m*3 4.7 C 4.8 km/h
270 14-03-2021 22:25:00 4.7 C 6.06 g/m*3 4.7 C 4.8 km/h
271 14-03-2021 22:30:00 4.7 C 6.06 g/m*3 4.7 C 3.2 km/h
272 14-03-2021 22:35:00 4.7 C 6.06 g/m*3 3.25 C 6.4 km/h
273 14-03-2021 22:40:00 4.7 C 6.06 g/m*3 2.03 C 11.3 km/h
274 14-03-2021 22:45:00 4.7 C 6 g/m*3 3.25 C 6.4 km/h
275 14-03-2021 22:50:00 4.7 C 6 g/m*3 2.76 C 8.1 km/h
Sensor: Nr:Datum:Temp:Abs-Feuchte:Windchill:Wind:
Aussen-T/F 276 14-03-2021 22:55:00 4.7 C 6 g/m*3 2.03 C 11.3 km/h
277 14-03-2021 23:00:00 4.7 C 6 g/m*3 2.03 C 11.3 km/h
278 14-03-2021 23:05:00 4.7 C 6 g/m*3 2.76 C 8.1 km/h
279 14-03-2021 23:10:00 4.7 C 6 g/m*3 2.37 C 9.7 km/h
280 14-03-2021 23:15:00 4.7 C 6 g/m*3 1.46 C 14.5 km/h
281 14-03-2021 23:20:00 4.8 C 5.97 g/m*3 2.49 C 9.7 km/h
282 14-03-2021 23:25:00 4.8 C 5.97 g/m*3 1.34 C 16.1 km/h
283 14-03-2021 23:30:00 4.8 C 5.97 g/m*3 1.58 C 14.5 km/h
284 14-03-2021 23:35:00 4.7 C 5.93 g/m*3 0.99 C 17.7 km/h
285 14-03-2021 23:40:00 4.7 C 5.93 g/m*3 2.76 C 8.1 km/h
286 14-03-2021 23:45:00 4.7 C 5.93 g/m*3 0.78 C 19.3 km/h
287 14-03-2021 23:50:00 4.6 C 5.89 g/m*3 2.64 C 8.1 km/h
288 14-03-2021 23:55:00 4.6 C 5.89 g/m*3 3.13 C 6.4 km/h

Legende:
   Min
   Max


Maximal/Minimal-Werte vom 14.03.2021 - 14.03.2021

Sensor Min Max Avg
Temp
(Aussen-T/F)
3.5 °C
14-03-2021  05:30:00
8.3 °C
14-03-2021  17:00:00
5.29 °C
Abs-Feuchte
(Aussen-T/F)
5.36 g/m*3
14-03-2021  06:50:00
7.41 g/m*3
14-03-2021  16:55:00
6.02 g/m*3
Windchill
(Aussen-T/F)
-0.69 C
14-03-2021  06:15:00
8.3 C
14-03-2021  17:00:00
3.34 C

Die Daten stammen von einer Davis Vantage Pro 2 Wetter-Station und werden unter Linux mit der Software wview2wettercgi und aufbereitet. Alle Angaben erfolgen ohne Gewähr für ihre Vollständigkeit oder Richtigkeit.
Kontakt: Rainer Krienke krienke@uni-koblenz.de . Meine Webseiten an der Uni Koblenz oder privat.
Version: $Revision: 0.78 $